sensor_id;sensor_type;location;lat;lon;timestamp;P1;durP1;ratioP1;P2;durP2;ratioP2
37791;SDS011;29527;55.766;37.570;2023-06-22T00:01:11;13.90;;;6.90;;
37791;SDS011;29527;55.766;37.570;2023-06-22T00:03:36;23.33;;;7.20;;
37791;SDS011;29527;55.766;37.570;2023-06-22T00:06:02;15.95;;;6.35;;
37791;SDS011;29527;55.766;37.570;2023-06-22T00:08:29;20.23;;;6.63;;
37791;SDS011;29527;55.766;37.570;2023-06-22T00:10:54;19.27;;;7.13;;
37791;SDS011;29527;55.766;37.570;2023-06-22T00:13:20;23.08;;;8.18;;
37791;SDS011;29527;55.766;37.570;2023-06-22T00:15:45;22.02;;;7.30;;
37791;SDS011;29527;55.766;37.570;2023-06-22T00:18:11;31.25;;;7.95;;
37791;SDS011;29527;55.766;37.570;2023-06-22T00:20:38;28.08;;;9.13;;
37791;SDS011;29527;55.766;37.570;2023-06-22T00:23:04;23.35;;;8.23;;
37791;SDS011;29527;55.766;37.570;2023-06-22T00:25:37;18.60;;;7.43;;
37791;SDS011;29527;55.766;37.570;2023-06-22T00:28:07;26.17;;;9.35;;
37791;SDS011;29527;55.766;37.570;2023-06-22T00:30:33;29.65;;;8.95;;
37791;SDS011;29527;55.766;37.570;2023-06-22T00:32:59;23.05;;;8.55;;
37791;SDS011;29527;55.766;37.570;2023-06-22T00:35:26;26.05;;;8.52;;
37791;SDS011;29527;55.766;37.570;2023-06-22T00:37:59;21.23;;;8.38;;
37791;SDS011;29527;55.766;37.570;2023-06-22T00:40:27;31.05;;;8.50;;
37791;SDS011;29527;55.766;37.570;2023-06-22T00:42:54;22.95;;;8.43;;
37791;SDS011;29527;55.766;37.570;2023-06-22T00:45:20;26.17;;;8.43;;
37791;SDS011;29527;55.766;37.570;2023-06-22T00:47:48;24.27;;;8.63;;
37791;SDS011;29527;55.766;37.570;2023-06-22T00:50:25;24.75;;;7.90;;
37791;SDS011;29527;55.766;37.570;2023-06-22T00:52:57;30.75;;;8.57;;
37791;SDS011;29527;55.766;37.570;2023-06-22T00:55:26;20.45;;;8.82;;
37791;SDS011;29527;55.766;37.570;2023-06-22T00:57:52;26.25;;;8.73;;
37791;SDS011;29527;55.766;37.570;2023-06-22T01:00:22;26.65;;;9.02;;
37791;SDS011;29527;55.766;37.570;2023-06-22T01:02:50;30.15;;;8.70;;
37791;SDS011;29527;55.766;37.570;2023-06-22T01:05:21;23.83;;;7.90;;
37791;SDS011;29527;55.766;37.570;2023-06-22T01:08:05;27.88;;;9.00;;
37791;SDS011;29527;55.766;37.570;2023-06-22T01:10:36;26.27;;;8.88;;
37791;SDS011;29527;55.766;37.570;2023-06-22T01:13:06;34.03;;;8.00;;
37791;SDS011;29527;55.766;37.570;2023-06-22T01:15:41;24.63;;;8.43;;
37791;SDS011;29527;55.766;37.570;2023-06-22T01:18:11;30.80;;;8.55;;
37791;SDS011;29527;55.766;37.570;2023-06-22T01:20:39;32.58;;;8.50;;
37791;SDS011;29527;55.766;37.570;2023-06-22T01:23:10;28.50;;;8.45;;
37791;SDS011;29527;55.766;37.570;2023-06-22T01:31:17;21.70;;;8.00;;
37791;SDS011;29527;55.766;37.570;2023-06-22T01:33:46;21.83;;;7.88;;
37791;SDS011;29527;55.766;37.570;2023-06-22T01:36:17;18.63;;;8.07;;
37791;SDS011;29527;55.766;37.570;2023-06-22T01:38:44;26.98;;;8.65;;
37791;SDS011;29527;55.766;37.570;2023-06-22T01:41:10;21.90;;;7.72;;
37791;SDS011;29527;55.766;37.570;2023-06-22T01:43:37;29.33;;;7.63;;
37791;SDS011;29527;55.766;37.570;2023-06-22T01:46:03;22.17;;;7.82;;
37791;SDS011;29527;55.766;37.570;2023-06-22T01:48:30;20.33;;;7.68;;
37791;SDS011;29527;55.766;37.570;2023-06-22T01:50:56;26.38;;;7.85;;
37791;SDS011;29527;55.766;37.570;2023-06-22T01:53:22;22.08;;;8.02;;
37791;SDS011;29527;55.766;37.570;2023-06-22T01:55:48;19.35;;;7.63;;
37791;SDS011;29527;55.766;37.570;2023-06-22T01:58:14;21.80;;;7.32;;
37791;SDS011;29527;55.766;37.570;2023-06-22T02:00:41;18.20;;;7.38;;
37791;SDS011;29527;55.766;37.570;2023-06-22T02:03:14;26.00;;;7.80;;
37791;SDS011;29527;55.766;37.570;2023-06-22T02:05:51;23.90;;;7.07;;
37791;SDS011;29527;55.766;37.570;2023-06-22T02:08:25;25.77;;;7.88;;
37791;SDS011;29527;55.766;37.570;2023-06-22T02:10:55;27.42;;;7.80;;
37791;SDS011;29527;55.766;37.570;2023-06-22T02:13:23;22.08;;;7.75;;
37791;SDS011;29527;55.766;37.570;2023-06-22T02:15:49;19.58;;;7.68;;
37791;SDS011;29527;55.766;37.570;2023-06-22T02:18:16;24.73;;;7.88;;
37791;SDS011;29527;55.766;37.570;2023-06-22T02:20:41;17.35;;;7.20;;
37791;SDS011;29527;55.766;37.570;2023-06-22T02:23:07;16.50;;;7.43;;
37791;SDS011;29527;55.766;37.570;2023-06-22T02:25:34;22.55;;;7.43;;
37791;SDS011;29527;55.766;37.570;2023-06-22T02:28:00;12.90;;;7.20;;
37791;SDS011;29527;55.766;37.570;2023-06-22T02:30:26;22.48;;;7.82;;
37791;SDS011;29527;55.766;37.570;2023-06-22T02:32:52;21.65;;;7.65;;
37791;SDS011;29527;55.766;37.570;2023-06-22T02:35:28;17.67;;;7.10;;
37791;SDS011;29527;55.766;37.570;2023-06-22T02:38:00;16.58;;;6.97;;
37791;SDS011;29527;55.766;37.570;2023-06-22T02:40:27;14.60;;;7.35;;
37791;SDS011;29527;55.766;37.570;2023-06-22T02:42:57;17.77;;;7.20;;
37791;SDS011;29527;55.766;37.570;2023-06-22T02:45:27;17.77;;;7.72;;
37791;SDS011;29527;55.766;37.570;2023-06-22T02:47:53;17.15;;;7.55;;
37791;SDS011;29527;55.766;37.570;2023-06-22T02:50:19;19.80;;;7.93;;
37791;SDS011;29527;55.766;37.570;2023-06-22T02:52:45;14.70;;;7.25;;
37791;SDS011;29527;55.766;37.570;2023-06-22T02:55:11;11.05;;;6.85;;
37791;SDS011;29527;55.766;37.570;2023-06-22T02:57:37;13.85;;;6.53;;
37791;SDS011;29527;55.766;37.570;2023-06-22T03:00:03;12.68;;;6.43;;
37791;SDS011;29527;55.766;37.570;2023-06-22T03:02:41;11.25;;;6.80;;
37791;SDS011;29527;55.766;37.570;2023-06-22T03:05:07;17.45;;;6.72;;
37791;SDS011;29527;55.766;37.570;2023-06-22T03:07:35;11.80;;;6.10;;
37791;SDS011;29527;55.766;37.570;2023-06-22T03:10:01;14.60;;;6.93;;
37791;SDS011;29527;55.766;37.570;2023-06-22T03:12:29;11.45;;;6.10;;
37791;SDS011;29527;55.766;37.570;2023-06-22T03:14:54;11.52;;;5.95;;
37791;SDS011;29527;55.766;37.570;2023-06-22T03:17:20;12.85;;;5.47;;
37791;SDS011;29527;55.766;37.570;2023-06-22T03:19:45;8.80;;;5.38;;
37791;SDS011;29527;55.766;37.570;2023-06-22T03:22:11;10.77;;;5.55;;
37791;SDS011;29527;55.766;37.570;2023-06-22T03:24:36;10.68;;;5.75;;
37791;SDS011;29527;55.766;37.570;2023-06-22T03:27:04;11.00;;;5.90;;
37791;SDS011;29527;55.766;37.570;2023-06-22T03:29:30;11.50;;;5.35;;
37791;SDS011;29527;55.766;37.570;2023-06-22T03:31:56;8.38;;;4.80;;
37791;SDS011;29527;55.766;37.570;2023-06-22T03:34:22;8.40;;;5.18;;
37791;SDS011;29527;55.766;37.570;2023-06-22T03:36:47;10.88;;;5.18;;
37791;SDS011;29527;55.766;37.570;2023-06-22T03:39:13;9.40;;;5.15;;
37791;SDS011;29527;55.766;37.570;2023-06-22T03:41:38;10.93;;;5.88;;
37791;SDS011;29527;55.766;37.570;2023-06-22T03:44:04;8.27;;;5.18;;
37791;SDS011;29527;55.766;37.570;2023-06-22T03:46:29;11.52;;;5.13;;
37791;SDS011;29527;55.766;37.570;2023-06-22T03:48:55;13.80;;;5.97;;
37791;SDS011;29527;55.766;37.570;2023-06-22T03:51:20;10.93;;;5.50;;
37791;SDS011;29527;55.766;37.570;2023-06-22T03:53:46;12.45;;;5.93;;
37791;SDS011;29527;55.766;37.570;2023-06-22T03:56:13;9.85;;;5.22;;
37791;SDS011;29527;55.766;37.570;2023-06-22T03:58:45;9.82;;;5.18;;
37791;SDS011;29527;55.766;37.570;2023-06-22T04:01:12;7.18;;;4.70;;
37791;SDS011;29527;55.766;37.570;2023-06-22T04:03:38;9.40;;;4.82;;
37791;SDS011;29527;55.766;37.570;2023-06-22T04:06:03;10.73;;;5.10;;
37791;SDS011;29527;55.766;37.570;2023-06-22T04:08:29;11.40;;;5.00;;
37791;SDS011;29527;55.766;37.570;2023-06-22T04:10:55;8.45;;;4.57;;
37791;SDS011;29527;55.766;37.570;2023-06-22T04:13:21;10.88;;;4.45;;
37791;SDS011;29527;55.766;37.570;2023-06-22T04:15:46;13.55;;;5.20;;
37791;SDS011;29527;55.766;37.570;2023-06-22T04:18:12;10.55;;;4.57;;
37791;SDS011;29527;55.766;37.570;2023-06-22T04:20:38;8.02;;;4.40;;
37791;SDS011;29527;55.766;37.570;2023-06-22T04:23:04;8.32;;;4.50;;
37791;SDS011;29527;55.766;37.570;2023-06-22T04:25:30;6.80;;;4.10;;
37791;SDS011;29527;55.766;37.570;2023-06-22T04:27:55;7.13;;;3.95;;
37791;SDS011;29527;55.766;37.570;2023-06-22T04:30:21;7.78;;;3.90;;
37791;SDS011;29527;55.766;37.570;2023-06-22T04:32:47;5.95;;;3.80;;
37791;SDS011;29527;55.766;37.570;2023-06-22T04:35:25;8.27;;;4.25;;
37791;SDS011;29527;55.766;37.570;2023-06-22T04:37:52;8.27;;;3.95;;
37791;SDS011;29527;55.766;37.570;2023-06-22T04:40:23;10.75;;;4.18;;
37791;SDS011;29527;55.766;37.570;2023-06-22T04:42:48;8.40;;;3.80;;
37791;SDS011;29527;55.766;37.570;2023-06-22T04:45:18;8.38;;;4.10;;
37791;SDS011;29527;55.766;37.570;2023-06-22T04:47:44;7.60;;;4.00;;
37791;SDS011;29527;55.766;37.570;2023-06-22T04:50:13;7.82;;;3.78;;
37791;SDS011;29527;55.766;37.570;2023-06-22T04:52:39;8.68;;;3.58;;
37791;SDS011;29527;55.766;37.570;2023-06-22T04:55:05;7.20;;;3.72;;
37791;SDS011;29527;55.766;37.570;2023-06-22T04:57:31;11.10;;;3.55;;
37791;SDS011;29527;55.766;37.570;2023-06-22T05:00:00;5.30;;;3.45;;
37791;SDS011;29527;55.766;37.570;2023-06-22T05:02:41;6.63;;;3.47;;
37791;SDS011;29527;55.766;37.570;2023-06-22T05:05:07;9.23;;;3.75;;
37791;SDS011;29527;55.766;37.570;2023-06-22T05:07:33;7.45;;;3.20;;
37791;SDS011;29527;55.766;37.570;2023-06-22T05:10:00;3.65;;;3.15;;
37791;SDS011;29527;55.766;37.570;2023-06-22T05:12:29;4.88;;;3.40;;
37791;SDS011;29527;55.766;37.570;2023-06-22T05:14:55;6.10;;;3.72;;
37791;SDS011;29527;55.766;37.570;2023-06-22T05:17:21;8.25;;;3.85;;
37791;SDS011;29527;55.766;37.570;2023-06-22T05:19:46;6.78;;;3.50;;
37791;SDS011;29527;55.766;37.570;2023-06-22T05:22:15;3.90;;;3.40;;
37791;SDS011;29527;55.766;37.570;2023-06-22T05:24:41;5.25;;;3.60;;
37791;SDS011;29527;55.766;37.570;2023-06-22T05:27:08;4.93;;;2.88;;
37791;SDS011;29527;55.766;37.570;2023-06-22T05:29:34;5.65;;;3.53;;
37791;SDS011;29527;55.766;37.570;2023-06-22T05:32:02;4.28;;;3.63;;
37791;SDS011;29527;55.766;37.570;2023-06-22T05:34:28;6.10;;;3.10;;
37791;SDS011;29527;55.766;37.570;2023-06-22T05:36:53;5.32;;;3.58;;
37791;SDS011;29527;55.766;37.570;2023-06-22T05:39:19;6.25;;;3.25;;
37791;SDS011;29527;55.766;37.570;2023-06-22T05:41:45;5.32;;;3.50;;
37791;SDS011;29527;55.766;37.570;2023-06-22T05:44:11;5.00;;;3.65;;
37791;SDS011;29527;55.766;37.570;2023-06-22T05:46:39;4.20;;;3.80;;
37791;SDS011;29527;55.766;37.570;2023-06-22T05:49:09;5.95;;;3.33;;
37791;SDS011;29527;55.766;37.570;2023-06-22T05:51:35;4.22;;;3.38;;
37791;SDS011;29527;55.766;37.570;2023-06-22T05:54:00;4.93;;;3.63;;
37791;SDS011;29527;55.766;37.570;2023-06-22T05:56:26;3.92;;;3.55;;
37791;SDS011;29527;55.766;37.570;2023-06-22T05:58:51;5.43;;;3.40;;
37791;SDS011;29527;55.766;37.570;2023-06-22T06:01:17;5.72;;;3.67;;
37791;SDS011;29527;55.766;37.570;2023-06-22T06:03:42;4.78;;;3.85;;
37791;SDS011;29527;55.766;37.570;2023-06-22T06:06:09;7.40;;;3.60;;
37791;SDS011;29527;55.766;37.570;2023-06-22T06:08:36;6.13;;;3.60;;
37791;SDS011;29527;55.766;37.570;2023-06-22T06:11:05;4.75;;;4.00;;
37791;SDS011;29527;55.766;37.570;2023-06-22T06:13:30;3.95;;;3.58;;
37791;SDS011;29527;55.766;37.570;2023-06-22T06:15:56;4.45;;;3.60;;
37791;SDS011;29527;55.766;37.570;2023-06-22T06:18:22;4.47;;;3.70;;
37791;SDS011;29527;55.766;37.570;2023-06-22T06:20:49;4.88;;;3.67;;
37791;SDS011;29527;55.766;37.570;2023-06-22T06:23:15;6.70;;;3.78;;
37791;SDS011;29527;55.766;37.570;2023-06-22T06:25:40;6.85;;;3.88;;
37791;SDS011;29527;55.766;37.570;2023-06-22T06:28:07;7.82;;;3.65;;
37791;SDS011;29527;55.766;37.570;2023-06-22T06:30:32;7.57;;;3.53;;
37791;SDS011;29527;55.766;37.570;2023-06-22T06:32:58;7.57;;;4.00;;
37791;SDS011;29527;55.766;37.570;2023-06-22T06:35:24;5.35;;;4.18;;
37791;SDS011;29527;55.766;37.570;2023-06-22T06:37:49;7.53;;;4.03;;
37791;SDS011;29527;55.766;37.570;2023-06-22T06:40:16;4.38;;;3.72;;
37791;SDS011;29527;55.766;37.570;2023-06-22T06:42:44;8.20;;;3.47;;
37791;SDS011;29527;55.766;37.570;2023-06-22T06:45:12;6.18;;;3.28;;
37791;SDS011;29527;55.766;37.570;2023-06-22T06:47:42;6.55;;;3.17;;
37791;SDS011;29527;55.766;37.570;2023-06-22T06:50:08;6.32;;;3.60;;
37791;SDS011;29527;55.766;37.570;2023-06-22T06:52:34;5.38;;;3.70;;
37791;SDS011;29527;55.766;37.570;2023-06-22T06:55:00;5.72;;;3.83;;
37791;SDS011;29527;55.766;37.570;2023-06-22T06:57:26;8.85;;;4.18;;
37791;SDS011;29527;55.766;37.570;2023-06-22T06:59:58;4.22;;;3.55;;
37791;SDS011;29527;55.766;37.570;2023-06-22T07:02:23;4.60;;;3.45;;
37791;SDS011;29527;55.766;37.570;2023-06-22T07:04:49;4.03;;;3.35;;
37791;SDS011;29527;55.766;37.570;2023-06-22T07:07:15;6.07;;;3.65;;
37791;SDS011;29527;55.766;37.570;2023-06-22T07:09:40;4.90;;;3.20;;
37791;SDS011;29527;55.766;37.570;2023-06-22T07:12:06;4.45;;;3.22;;
37791;SDS011;29527;55.766;37.570;2023-06-22T07:14:32;10.27;;;3.28;;
37791;SDS011;29527;55.766;37.570;2023-06-22T07:16:58;7.35;;;3.58;;
37791;SDS011;29527;55.766;37.570;2023-06-22T07:19:24;4.60;;;3.53;;
37791;SDS011;29527;55.766;37.570;2023-06-22T07:21:51;3.80;;;3.40;;
37791;SDS011;29527;55.766;37.570;2023-06-22T07:24:16;6.63;;;3.20;;
37791;SDS011;29527;55.766;37.570;2023-06-22T07:26:42;4.03;;;3.70;;
37791;SDS011;29527;55.766;37.570;2023-06-22T07:29:11;5.15;;;3.53;;
37791;SDS011;29527;55.766;37.570;2023-06-22T07:31:37;4.35;;;3.28;;
37791;SDS011;29527;55.766;37.570;2023-06-22T07:34:02;4.35;;;3.38;;
37791;SDS011;29527;55.766;37.570;2023-06-22T07:36:29;7.25;;;3.47;;
37791;SDS011;29527;55.766;37.570;2023-06-22T07:38:55;3.88;;;3.58;;
37791;SDS011;29527;55.766;37.570;2023-06-22T07:41:20;4.65;;;3.63;;
37791;SDS011;29527;55.766;37.570;2023-06-22T07:43:46;3.60;;;3.30;;
37791;SDS011;29527;55.766;37.570;2023-06-22T07:46:12;3.60;;;3.13;;
37791;SDS011;29527;55.766;37.570;2023-06-22T07:48:37;6.50;;;3.80;;
37791;SDS011;29527;55.766;37.570;2023-06-22T07:51:04;12.95;;;3.70;;
37791;SDS011;29527;55.766;37.570;2023-06-22T07:53:31;4.40;;;3.67;;
37791;SDS011;29527;55.766;37.570;2023-06-22T07:55:56;5.95;;;3.80;;
37791;SDS011;29527;55.766;37.570;2023-06-22T07:58:22;9.93;;;3.88;;
37791;SDS011;29527;55.766;37.570;2023-06-22T08:00:47;10.18;;;3.83;;
37791;SDS011;29527;55.766;37.570;2023-06-22T08:03:14;8.57;;;4.03;;
37791;SDS011;29527;55.766;37.570;2023-06-22T08:05:40;10.63;;;4.35;;
37791;SDS011;29527;55.766;37.570;2023-06-22T08:08:06;5.97;;;3.80;;
37791;SDS011;29527;55.766;37.570;2023-06-22T08:10:31;7.47;;;3.97;;
37791;SDS011;29527;55.766;37.570;2023-06-22T08:12:57;12.73;;;4.32;;
37791;SDS011;29527;55.766;37.570;2023-06-22T08:15:22;9.52;;;3.67;;
37791;SDS011;29527;55.766;37.570;2023-06-22T08:17:48;5.53;;;3.63;;
37791;SDS011;29527;55.766;37.570;2023-06-22T08:20:13;6.45;;;3.58;;
37791;SDS011;29527;55.766;37.570;2023-06-22T08:22:40;9.35;;;3.70;;
37791;SDS011;29527;55.766;37.570;2023-06-22T08:25:07;9.68;;;4.25;;
37791;SDS011;29527;55.766;37.570;2023-06-22T08:27:33;7.28;;;3.63;;
37791;SDS011;29527;55.766;37.570;2023-06-22T08:29:59;8.52;;;4.00;;
37791;SDS011;29527;55.766;37.570;2023-06-22T08:32:31;10.77;;;4.70;;
37791;SDS011;29527;55.766;37.570;2023-06-22T08:34:57;10.10;;;4.20;;
37791;SDS011;29527;55.766;37.570;2023-06-22T08:37:23;6.38;;;3.80;;
37791;SDS011;29527;55.766;37.570;2023-06-22T08:39:56;4.63;;;3.40;;
37791;SDS011;29527;55.766;37.570;2023-06-22T08:42:26;6.47;;;3.78;;
37791;SDS011;29527;55.766;37.570;2023-06-22T08:44:52;4.53;;;3.58;;
37791;SDS011;29527;55.766;37.570;2023-06-22T08:47:19;6.85;;;3.67;;
37791;SDS011;29527;55.766;37.570;2023-06-22T08:49:45;5.57;;;3.42;;
37791;SDS011;29527;55.766;37.570;2023-06-22T08:52:11;7.45;;;3.85;;
37791;SDS011;29527;55.766;37.570;2023-06-22T08:54:36;4.85;;;3.80;;
37791;SDS011;29527;55.766;37.570;2023-06-22T08:57:02;9.85;;;3.85;;
37791;SDS011;29527;55.766;37.570;2023-06-22T08:59:27;6.80;;;3.83;;
37791;SDS011;29527;55.766;37.570;2023-06-22T09:01:53;7.18;;;3.90;;
37791;SDS011;29527;55.766;37.570;2023-06-22T09:04:19;11.38;;;4.32;;
37791;SDS011;29527;55.766;37.570;2023-06-22T09:06:47;5.90;;;3.83;;
37791;SDS011;29527;55.766;37.570;2023-06-22T09:09:13;5.53;;;3.97;;
37791;SDS011;29527;55.766;37.570;2023-06-22T09:11:39;7.63;;;4.50;;
37791;SDS011;29527;55.766;37.570;2023-06-22T09:14:05;6.43;;;4.05;;
37791;SDS011;29527;55.766;37.570;2023-06-22T09:16:31;3.97;;;3.65;;
37791;SDS011;29527;55.766;37.570;2023-06-22T09:18:57;6.90;;;3.80;;
37791;SDS011;29527;55.766;37.570;2023-06-22T09:21:23;5.30;;;3.80;;
37791;SDS011;29527;55.766;37.570;2023-06-22T09:23:48;7.57;;;4.55;;
37791;SDS011;29527;55.766;37.570;2023-06-22T09:26:19;8.35;;;4.47;;
37791;SDS011;29527;55.766;37.570;2023-06-22T09:28:46;7.20;;;4.32;;
37791;SDS011;29527;55.766;37.570;2023-06-22T09:31:12;7.65;;;4.55;;
37791;SDS011;29527;55.766;37.570;2023-06-22T09:33:39;8.80;;;4.57;;
37791;SDS011;29527;55.766;37.570;2023-06-22T09:36:05;7.05;;;4.50;;
37791;SDS011;29527;55.766;37.570;2023-06-22T09:38:34;9.88;;;4.47;;
37791;SDS011;29527;55.766;37.570;2023-06-22T09:41:00;9.98;;;4.72;;
37791;SDS011;29527;55.766;37.570;2023-06-22T09:43:26;7.25;;;4.30;;
37791;SDS011;29527;55.766;37.570;2023-06-22T09:45:52;7.72;;;3.95;;
37791;SDS011;29527;55.766;37.570;2023-06-22T09:48:18;4.93;;;3.97;;
37791;SDS011;29527;55.766;37.570;2023-06-22T09:50:43;6.68;;;4.20;;
37791;SDS011;29527;55.766;37.570;2023-06-22T09:53:09;7.35;;;3.88;;
37791;SDS011;29527;55.766;37.570;2023-06-22T09:55:34;6.43;;;4.45;;
37791;SDS011;29527;55.766;37.570;2023-06-22T09:58:00;7.28;;;4.50;;
37791;SDS011;29527;55.766;37.570;2023-06-22T10:00:25;6.70;;;4.25;;
37791;SDS011;29527;55.766;37.570;2023-06-22T10:02:51;7.07;;;4.55;;
37791;SDS011;29527;55.766;37.570;2023-06-22T10:05:17;5.43;;;4.53;;
37791;SDS011;29527;55.766;37.570;2023-06-22T10:07:43;6.93;;;4.22;;
37791;SDS011;29527;55.766;37.570;2023-06-22T10:10:09;6.68;;;4.00;;
37791;SDS011;29527;55.766;37.570;2023-06-22T10:12:36;5.65;;;4.43;;
37791;SDS011;29527;55.766;37.570;2023-06-22T10:15:02;7.70;;;4.15;;
37791;SDS011;29527;55.766;37.570;2023-06-22T10:17:31;8.88;;;4.97;;
37791;SDS011;29527;55.766;37.570;2023-06-22T10:19:56;6.40;;;3.85;;
37791;SDS011;29527;55.766;37.570;2023-06-22T10:22:22;8.07;;;4.60;;
37791;SDS011;29527;55.766;37.570;2023-06-22T10:24:47;5.65;;;4.32;;
37791;SDS011;29527;55.766;37.570;2023-06-22T10:27:13;6.10;;;4.00;;
37791;SDS011;29527;55.766;37.570;2023-06-22T10:29:39;8.23;;;4.85;;
37791;SDS011;29527;55.766;37.570;2023-06-22T10:32:04;5.90;;;4.40;;
37791;SDS011;29527;55.766;37.570;2023-06-22T10:34:30;7.85;;;4.72;;
37791;SDS011;29527;55.766;37.570;2023-06-22T10:36:56;10.15;;;5.07;;
37791;SDS011;29527;55.766;37.570;2023-06-22T10:39:21;7.22;;;4.70;;
37791;SDS011;29527;55.766;37.570;2023-06-22T10:41:47;5.85;;;4.60;;
37791;SDS011;29527;55.766;37.570;2023-06-22T10:44:12;7.97;;;4.10;;
37791;SDS011;29527;55.766;37.570;2023-06-22T10:46:38;6.45;;;4.53;;
37791;SDS011;29527;55.766;37.570;2023-06-22T10:49:04;7.03;;;4.20;;
37791;SDS011;29527;55.766;37.570;2023-06-22T10:51:29;8.32;;;5.70;;
37791;SDS011;29527;55.766;37.570;2023-06-22T10:53:56;6.30;;;5.20;;
37791;SDS011;29527;55.766;37.570;2023-06-22T10:56:22;6.25;;;5.55;;
37791;SDS011;29527;55.766;37.570;2023-06-22T10:58:47;6.97;;;5.10;;
37791;SDS011;29527;55.766;37.570;2023-06-22T11:01:13;8.07;;;4.97;;
37791;SDS011;29527;55.766;37.570;2023-06-22T11:03:39;9.27;;;4.90;;
37791;SDS011;29527;55.766;37.570;2023-06-22T11:06:05;6.32;;;4.47;;
37791;SDS011;29527;55.766;37.570;2023-06-22T11:08:30;7.00;;;4.63;;
37791;SDS011;29527;55.766;37.570;2023-06-22T11:10:56;6.13;;;4.60;;
37791;SDS011;29527;55.766;37.570;2023-06-22T11:13:21;6.25;;;5.13;;
37791;SDS011;29527;55.766;37.570;2023-06-22T11:15:46;7.38;;;4.60;;
37791;SDS011;29527;55.766;37.570;2023-06-22T11:18:12;5.97;;;4.55;;
37791;SDS011;29527;55.766;37.570;2023-06-22T11:20:38;7.35;;;5.15;;
37791;SDS011;29527;55.766;37.570;2023-06-22T11:23:05;6.78;;;5.20;;
37791;SDS011;29527;55.766;37.570;2023-06-22T11:25:33;6.15;;;4.40;;
37791;SDS011;29527;55.766;37.570;2023-06-22T11:28:03;10.43;;;5.25;;
37791;SDS011;29527;55.766;37.570;2023-06-22T11:30:29;9.35;;;4.70;;
37791;SDS011;29527;55.766;37.570;2023-06-22T11:32:58;7.10;;;4.80;;
37791;SDS011;29527;55.766;37.570;2023-06-22T11:35:24;5.85;;;5.20;;
37791;SDS011;29527;55.766;37.570;2023-06-22T11:37:51;5.10;;;4.60;;
37791;SDS011;29527;55.766;37.570;2023-06-22T11:40:16;6.78;;;5.10;;
37791;SDS011;29527;55.766;37.570;2023-06-22T11:42:43;6.95;;;4.70;;
37791;SDS011;29527;55.766;37.570;2023-06-22T11:45:08;7.07;;;4.88;;
37791;SDS011;29527;55.766;37.570;2023-06-22T11:47:34;7.47;;;4.95;;
37791;SDS011;29527;55.766;37.570;2023-06-22T11:50:01;6.05;;;4.57;;
37791;SDS011;29527;55.766;37.570;2023-06-22T11:52:29;5.32;;;4.70;;
37791;SDS011;29527;55.766;37.570;2023-06-22T11:54:54;5.57;;;4.80;;
37791;SDS011;29527;55.766;37.570;2023-06-22T11:57:20;5.13;;;4.50;;
37791;SDS011;29527;55.766;37.570;2023-06-22T11:59:45;6.95;;;4.60;;
37791;SDS011;29527;55.766;37.570;2023-06-22T12:02:11;5.20;;;4.55;;
37791;SDS011;29527;55.766;37.570;2023-06-22T12:04:36;5.25;;;4.55;;
37791;SDS011;29527;55.766;37.570;2023-06-22T12:07:03;5.75;;;3.55;;
37791;SDS011;29527;55.766;37.570;2023-06-22T12:09:28;6.35;;;4.90;;
37791;SDS011;29527;55.766;37.570;2023-06-22T12:11:54;6.40;;;4.70;;
37791;SDS011;29527;55.766;37.570;2023-06-22T12:14:19;10.30;;;5.25;;
37791;SDS011;29527;55.766;37.570;2023-06-22T12:16:45;7.18;;;4.65;;
37791;SDS011;29527;55.766;37.570;2023-06-22T12:19:11;7.13;;;4.88;;
37791;SDS011;29527;55.766;37.570;2023-06-22T12:21:37;5.65;;;4.45;;
37791;SDS011;29527;55.766;37.570;2023-06-22T12:24:03;7.47;;;4.70;;
37791;SDS011;29527;55.766;37.570;2023-06-22T12:26:28;8.85;;;4.70;;
37791;SDS011;29527;55.766;37.570;2023-06-22T12:28:54;6.93;;;4.80;;
37791;SDS011;29527;55.766;37.570;2023-06-22T12:31:19;5.22;;;4.72;;
37791;SDS011;29527;55.766;37.570;2023-06-22T12:33:45;8.32;;;5.20;;
37791;SDS011;29527;55.766;37.570;2023-06-22T12:36:10;6.30;;;4.80;;
37791;SDS011;29527;55.766;37.570;2023-06-22T12:38:36;8.43;;;4.68;;
37791;SDS011;29527;55.766;37.570;2023-06-22T12:41:01;5.13;;;4.53;;
37791;SDS011;29527;55.766;37.570;2023-06-22T12:43:27;13.23;;;5.90;;
37791;SDS011;29527;55.766;37.570;2023-06-22T12:45:53;11.27;;;4.95;;
37791;SDS011;29527;55.766;37.570;2023-06-22T12:48:18;10.70;;;5.78;;
37791;SDS011;29527;55.766;37.570;2023-06-22T12:50:44;6.88;;;4.93;;
37791;SDS011;29527;55.766;37.570;2023-06-22T12:53:09;8.30;;;5.00;;
37791;SDS011;29527;55.766;37.570;2023-06-22T12:55:35;7.22;;;5.07;;
37791;SDS011;29527;55.766;37.570;2023-06-22T12:58:00;7.30;;;4.75;;
37791;SDS011;29527;55.766;37.570;2023-06-22T13:00:26;5.70;;;4.60;;
37791;SDS011;29527;55.766;37.570;2023-06-22T13:02:51;7.95;;;4.70;;
37791;SDS011;29527;55.766;37.570;2023-06-22T13:05:17;4.93;;;4.43;;
37791;SDS011;29527;55.766;37.570;2023-06-22T13:07:42;4.95;;;4.50;;
37791;SDS011;29527;55.766;37.570;2023-06-22T13:10:08;6.80;;;4.82;;
37791;SDS011;29527;55.766;37.570;2023-06-22T13:12:34;6.40;;;4.93;;
37791;SDS011;29527;55.766;37.570;2023-06-22T13:15:00;5.07;;;4.53;;
37791;SDS011;29527;55.766;37.570;2023-06-22T13:17:25;8.32;;;4.72;;
37791;SDS011;29527;55.766;37.570;2023-06-22T13:19:51;7.78;;;4.53;;
37791;SDS011;29527;55.766;37.570;2023-06-22T13:22:30;8.52;;;4.95;;
37791;SDS011;29527;55.766;37.570;2023-06-22T13:25:05;12.18;;;4.93;;
37791;SDS011;29527;55.766;37.570;2023-06-22T13:27:31;7.97;;;4.57;;
37791;SDS011;29527;55.766;37.570;2023-06-22T13:29:57;15.90;;;5.15;;
37791;SDS011;29527;55.766;37.570;2023-06-22T13:32:23;7.13;;;4.80;;
37791;SDS011;29527;55.766;37.570;2023-06-22T13:34:48;9.93;;;4.93;;
37791;SDS011;29527;55.766;37.570;2023-06-22T13:37:14;8.18;;;5.05;;
37791;SDS011;29527;55.766;37.570;2023-06-22T13:39:39;7.95;;;5.00;;
37791;SDS011;29527;55.766;37.570;2023-06-22T13:42:05;6.18;;;4.97;;
37791;SDS011;29527;55.766;37.570;2023-06-22T13:44:31;5.43;;;4.93;;
37791;SDS011;29527;55.766;37.570;2023-06-22T13:46:58;9.45;;;4.93;;
37791;SDS011;29527;55.766;37.570;2023-06-22T13:49:23;7.47;;;4.78;;
37791;SDS011;29527;55.766;37.570;2023-06-22T13:51:49;9.63;;;5.00;;
37791;SDS011;29527;55.766;37.570;2023-06-22T13:54:15;5.43;;;4.53;;
37791;SDS011;29527;55.766;37.570;2023-06-22T13:56:41;6.53;;;4.38;;
37791;SDS011;29527;55.766;37.570;2023-06-22T13:59:07;6.53;;;4.68;;
37791;SDS011;29527;55.766;37.570;2023-06-22T14:01:37;5.93;;;4.88;;
37791;SDS011;29527;55.766;37.570;2023-06-22T14:04:05;7.63;;;5.03;;
37791;SDS011;29527;55.766;37.570;2023-06-22T14:06:31;7.55;;;4.90;;
37791;SDS011;29527;55.766;37.570;2023-06-22T14:08:56;11.30;;;5.15;;
37791;SDS011;29527;55.766;37.570;2023-06-22T14:11:22;5.72;;;5.13;;
37791;SDS011;29527;55.766;37.570;2023-06-22T14:13:47;5.53;;;4.78;;
37791;SDS011;29527;55.766;37.570;2023-06-22T14:16:13;6.28;;;4.90;;
37791;SDS011;29527;55.766;37.570;2023-06-22T14:18:38;8.02;;;5.00;;
37791;SDS011;29527;55.766;37.570;2023-06-22T14:21:04;12.10;;;5.22;;
37791;SDS011;29527;55.766;37.570;2023-06-22T14:23:30;5.93;;;4.80;;
37791;SDS011;29527;55.766;37.570;2023-06-22T14:25:55;8.00;;;5.05;;
37791;SDS011;29527;55.766;37.570;2023-06-22T14:28:21;8.55;;;5.32;;
37791;SDS011;29527;55.766;37.570;2023-06-22T14:30:47;7.00;;;5.28;;
37791;SDS011;29527;55.766;37.570;2023-06-22T14:33:12;12.20;;;5.50;;